Terminal Aerodrome Forecast
Issued by NWS

Home | Current Version | Previous Version | Text Only | Print | Product List | Glossary On
Versions: 1 2 3 4 5 6 7 8 9 10 11 12 13 14 15 16 17 18 19 20 21 22 23 24
000
FTUS43 KICT 182300
TAFSLN
TAF
KSLN 182320Z 1900/1924 16014G22KT P6SM SKC
     FM190100 11010KT P6SM SKC
     FM190700 15008KT 4SM BR BKN008
     FM191500 19010KT P6SM SKC
     FM191800 19015G23KT P6SM SKC=

USA.gov is the U.S. government's official web portal to all federal, state and local government web resources and services.